Time;durP1;ratioP1;P1;durP2;ratioP2;P2;SDS_P1;SDS_P2;PMS_P1;PMS_P2;Temp;Humidity;BMP_temperature;BMP_pressure;BME280_temperature;BME280_humidity;BME280_pressure;Samples;Min_cycle;Max_cycle;Signal;HPM_P1;HPM_P2
2023/07/25 00:01:43;;;;;;;3.33;2.00;;;18.60;99.90;;;;;;4950188;28;20476;-82
2023/07/25 00:09:05;;;;;;;3.03;1.77;;;18.50;99.90;;;;;;4926563;28;20452;-82
2023/07/25 00:17:02;;;;;;;;;;;;;;;;;;;;;
2023/07/25 00:21:02;;;;;;;;;;;;;;;;;;;;;
2023/07/25 00:24:32;;;;;;;2.17;1.73;;;18.40;99.90;;;;;;5013456;28;20454;-81
2023/07/25 00:27:41;;;;;;;2.80;2.07;;;18.40;99.90;;;;;;4962181;28;20452;-85
2023/07/25 00:31:17;;;;;;;5.97;2.13;;;18.40;99.90;;;;;;4958838;28;20484;-81
2023/07/25 00:42:07;;;;;;;1.57;1.10;;;18.40;99.90;;;;;;4921704;28;20486;-83
2023/07/25 00:49:39;;;;;;;2.67;1.60;;;18.40;99.90;;;;;;4872444;29;21447;-84
2023/07/25 00:52:16;;;;;;;3.27;1.60;;;18.50;99.90;;;;;;5953352;22;20567;-81
2023/07/25 00:54:51;;;;;;;1.63;1.53;;;18.40;99.90;;;;;;5022930;28;22017;-83
2023/07/25 00:57:37;;;;;;;3.83;1.50;;;18.40;99.90;;;;;;5036002;28;20482;-83
2023/07/25 01:00:06;;;;;;;2.27;1.53;;;18.40;99.90;;;;;;5024386;28;20476;-82
2023/07/25 01:02:57;;;;;;;2.67;1.50;;;18.30;99.90;;;;;;4999305;28;20438;-83
2023/07/25 01:05:49;;;;;;;3.10;1.60;;;18.40;99.90;;;;;;4990042;28;20455;-81
2023/07/25 01:08:59;;;;;;;2.57;1.60;;;18.40;99.90;;;;;;5024621;28;20492;-82
2023/07/25 01:11:51;;;;;;;3.30;1.80;;;18.50;99.90;;;;;;5021224;28;20539;-82
2023/07/25 01:14:57;;;;;;;3.60;1.90;;;18.40;99.90;;;;;;5025588;28;20441;-83
2023/07/25 01:17:28;;;;;;;2.97;1.63;;;18.30;99.90;;;;;;5023237;28;20544;-83
2023/07/25 01:20:17;;;;;;;3.07;1.63;;;18.30;99.90;;;;;;5021778;28;20461;-84
2023/07/25 01:23:08;;;;;;;4.60;2.00;;;18.30;99.90;;;;;;5020844;28;21068;-82
2023/07/25 01:25:55;;;;;;;3.43;1.83;;;18.40;99.90;;;;;;4945093;28;20661;-82
2023/07/25 01:28:42;;;;;;;3.97;1.63;;;18.50;99.90;;;;;;4957909;28;20463;-84
2023/07/25 01:31:30;;;;;;;5.47;1.93;;;18.30;99.90;;;;;;4937053;29;20488;-82
2023/07/25 01:34:08;;;;;;;4.30;1.70;;;18.30;99.90;;;;;;4938801;29;20544;-82
2023/07/25 01:36:44;;;;;;;2.77;1.67;;;18.00;99.90;;;;;;4952183;28;20469;-83
2023/07/25 01:39:34;;;;;;;1.93;1.70;;;18.20;99.90;;;;;;4950659;29;20519;-83
2023/07/25 01:42:36;;;;;;;;;;;;;;;;;;;;;
2023/07/25 01:45:26;;;;;;;2.90;2.00;;;18.10;99.90;;;;;;4946249;29;20514;-82
2023/07/25 01:48:05;;;;;;;3.07;2.27;;;18.00;99.90;;;;;;4935404;29;20460;-81
2023/07/25 01:50:44;;;;;;;5.00;1.83;;;17.80;99.90;;;;;;4957064;29;20514;-83
2023/07/25 01:53:43;;;;;;;2.40;1.80;;;17.90;99.90;;;;;;4949164;29;20495;-82
2023/07/25 01:56:16;;;;;;;3.00;2.07;;;18.00;99.90;;;;;;4945470;29;20495;-82
2023/07/25 01:58:56;;;;;;;3.00;2.13;;;18.00;99.90;;;;;;4926176;29;20560;-83
2023/07/25 02:01:43;;;;;;;;;;;;;;;;;;;;;
2023/07/25 02:04:28;;;;;;;2.93;2.10;;;18.10;99.90;;;;;;5035882;28;20443;-83
2023/07/25 02:07:10;;;;;;;2.50;2.10;;;18.00;99.90;;;;;;5022126;28;20454;-82
2023/07/25 02:10:14;;;;;;;2.90;2.23;;;18.10;99.90;;;;;;5007682;28;20511;-84
2023/07/25 02:13:15;;;;;;;4.40;2.30;;;18.00;99.90;;;;;;4971872;28;20472;-84
2023/07/25 02:15:57;;;;;;;3.07;2.20;;;18.00;99.90;;;;;;5010986;28;20473;-85
2023/07/25 02:18:51;;;;;;;3.57;2.30;;;18.00;99.90;;;;;;5010235;28;20449;-83
2023/07/25 02:21:30;;;;;;;2.73;2.40;;;18.00;99.90;;;;;;5025997;28;20491;-84
2023/07/25 02:24:11;;;;;;;2.70;2.13;;;17.90;99.90;;;;;;5009669;28;20576;-85
2023/07/25 02:27:17;;;;;;;7.30;2.90;;;17.90;99.90;;;;;;5001519;28;21184;-84
2023/07/25 02:30:11;;;;;;;5.27;2.80;;;18.10;99.90;;;;;;5009123;28;20640;-84
2023/07/25 02:33:31;;;;;;;4.20;3.03;;;18.00;99.90;;;;;;5028141;28;20471;-82
2023/07/25 02:36:48;;;;;;;3.50;2.40;;;18.10;99.90;;;;;;4994167;28;20480;-84
2023/07/25 02:39:51;;;;;;;;;;;;;;;;;;;;;
2023/07/25 02:42:32;;;;;;;4.33;2.90;;;18.00;99.90;;;;;;5021944;28;20469;-83
2023/07/25 02:45:11;;;;;;;3.63;3.20;;;18.00;99.90;;;;;;5025151;28;20508;-82
2023/07/25 02:47:47;;;;;;;3.30;2.93;;;18.10;99.90;;;;;;5025164;28;20488;-84
2023/07/25 02:50:35;;;;;;;4.80;3.60;;;18.00;99.90;;;;;;5009737;28;20524;-83
2023/07/25 02:53:30;;;;;;;5.17;3.30;;;18.20;99.90;;;;;;5022516;28;20588;-85
2023/07/25 02:56:04;;;;;;;3.80;2.60;;;18.20;99.90;;;;;;4998262;28;20484;-83
2023/07/25 02:58:50;;;;;;;3.60;2.87;;;18.00;99.90;;;;;;5004589;28;20453;-84
2023/07/25 03:04:31;;;;;;;4.10;2.93;;;18.10;99.90;;;;;;5013822;28;20833;-83
2023/07/25 03:07:16;;;;;;;3.20;2.90;;;17.90;99.90;;;;;;5003568;28;20495;-82
2023/07/25 03:10:07;;;;;;;3.50;2.60;;;17.80;99.90;;;;;;5004765;28;20523;-83
2023/07/25 03:12:47;;;;;;;3.20;2.83;;;17.80;99.90;;;;;;5005377;28;20457;-83
2023/07/25 03:15:55;;;;;;;3.10;2.90;;;17.70;99.90;;;;;;5005153;28;20480;-82
2023/07/25 03:18:45;;;;;;;3.30;3.00;;;17.70;99.90;;;;;;5020577;28;20471;-84
2023/07/25 03:21:47;;;;;;;4.00;2.60;;;17.70;99.90;;;;;;5002727;28;20526;-84
2023/07/25 03:24:26;;;;;;;;;;;;;;;;;;;;;
2023/07/25 03:27:06;;;;;;;;;;;;;;;;;;;;;
2023/07/25 03:29:43;;;;;;;5.83;2.83;;;18.00;99.90;;;;;;5021395;28;20581;-83
2023/07/25 03:32:27;;;;;;;8.30;2.70;;;17.90;99.90;;;;;;5021352;28;20465;-84
2023/07/25 03:34:58;;;;;;;4.20;2.70;;;17.70;99.90;;;;;;5006622;28;20873;-84
2023/07/25 03:37:37;;;;;;;6.03;3.27;;;17.80;99.90;;;;;;5010014;28;21407;-84
2023/07/25 03:40:23;;;;;;;6.50;2.73;;;17.70;99.90;;;;;;5008460;28;20567;-84
2023/07/25 03:43:03;;;;;;;4.10;2.57;;;17.70;99.90;;;;;;5018318;28;20559;-83
2023/07/25 03:45:46;;;;;;;3.30;3.00;;;17.80;99.90;;;;;;5024422;28;20463;-82
2023/07/25 03:48:21;;;;;;;5.77;3.30;;;17.70;99.90;;;;;;5023805;28;20453;-83
2023/07/25 03:50:55;;;;;;;3.77;3.23;;;17.80;99.90;;;;;;5036906;28;20480;-83
2023/07/25 03:53:26;;;;;;;4.00;2.67;;;17.70;99.90;;;;;;5023018;28;20465;-82
2023/07/25 03:56:02;;;;;;;4.13;2.70;;;17.50;99.90;;;;;;5018354;28;20465;-83
2023/07/25 03:58:41;;;;;;;13.67;3.50;;;17.70;99.90;;;;;;5009087;28;20540;-83
2023/07/25 04:01:26;;;;;;;7.60;3.93;;;17.70;99.90;;;;;;5007411;28;20532;-81
2023/07/25 04:04:01;;;;;;;3.13;2.83;;;17.50;99.90;;;;;;5005653;28;20523;-83
2023/07/25 04:06:37;;;;;;;8.33;3.80;;;17.50;99.90;;;;;;4997877;28;20484;-83
2023/07/25 04:09:09;;;;;;;3.30;2.70;;;17.50;99.90;;;;;;5007532;28;20460;-82
2023/07/25 04:11:42;;;;;;;5.43;3.10;;;17.50;99.90;;;;;;4997972;28;20473;-82
2023/07/25 04:14:24;;;;;;;6.90;3.17;;;17.50;99.90;;;;;;4981652;28;20497;-83
2023/07/25 04:16:59;;;;;;;3.40;3.10;;;17.60;99.90;;;;;;5006059;28;20473;-85
2023/07/25 04:19:35;;;;;;;3.83;2.90;;;17.70;99.90;;;;;;5012502;28;20465;-82
2023/07/25 04:22:08;;;;;;;4.10;3.63;;;17.60;99.90;;;;;;5006013;28;20591;-83
2023/07/25 04:24:52;;;;;;;4.13;3.60;;;17.90;99.90;;;;;;5008237;28;20449;-82
2023/07/25 04:27:45;;;;;;;4.13;3.40;;;17.90;99.90;;;;;;5004772;28;20442;-83
2023/07/25 04:30:16;;;;;;;7.10;3.10;;;17.80;99.90;;;;;;5025874;28;20493;-82
2023/07/25 04:32:52;;;;;;;5.43;3.60;;;17.70;99.90;;;;;;5012503;28;20457;-82
2023/07/25 04:35:32;;;;;;;6.37;3.50;;;17.70;99.90;;;;;;5008790;28;20433;-80
2023/07/25 04:38:25;;;;;;;7.30;3.43;;;17.70;99.90;;;;;;5010428;28;20492;-84
2023/07/25 04:41:12;;;;;;;4.80;3.70;;;17.80;99.90;;;;;;5001091;28;20481;-81
2023/07/25 04:44:18;;;;;;;4.87;3.60;;;17.70;99.90;;;;;;5007990;28;20445;-84
2023/07/25 04:47:14;;;;;;;4.33;3.40;;;17.80;99.90;;;;;;5028419;28;20491;-82
2023/07/25 04:53:49;;;;;;;;;;;;;;;;;;;;;
2023/07/25 04:56:28;;;;;;;5.60;3.67;;;17.90;99.90;;;;;;5023079;28;20453;-82
2023/07/25 04:59:12;;;;;;;4.90;3.30;;;17.80;99.90;;;;;;5007703;28;20449;-82
2023/07/25 05:02:00;;;;;;;6.90;2.90;;;17.70;99.90;;;;;;5006493;28;20556;-82
2023/07/25 05:10:26;;;;;;;4.20;3.70;;;17.90;99.90;;;;;;5087882;22;20504;-81
2023/07/25 05:13:01;;;;;;;4.57;4.17;;;18.20;99.90;;;;;;4993450;28;20449;-81
2023/07/25 05:15:42;;;;;;;9.07;4.33;;;18.50;99.90;;;;;;5180707;22;20441;-84
2023/07/25 05:18:31;;;;;;;4.73;3.93;;;18.50;99.90;;;;;;4999432;28;20481;-82
2023/07/25 05:24:39;;;;;;;4.27;3.30;;;18.30;99.90;;;;;;4996217;28;20538;-83
2023/07/25 05:27:10;;;;;;;7.23;3.90;;;18.20;99.90;;;;;;4980177;28;20573;-82
2023/07/25 05:33:52;;;;;;;6.93;4.03;;;18.60;99.90;;;;;;4909441;29;20560;-81
2023/07/25 05:36:40;;;;;;;3.87;3.50;;;18.20;99.90;;;;;;4936144;28;20454;-81
2023/07/25 05:40:06;;;;;;;4.73;3.70;;;18.30;99.90;;;;;;4982153;28;20451;-82
2023/07/25 05:43:11;;;;;;;4.00;3.43;;;18.50;99.90;;;;;;4999472;28;20472;-84
2023/07/25 05:46:26;;;;;;;10.80;3.57;;;18.30;99.90;;;;;;4998241;28;20441;-82
2023/07/25 05:49:43;;;;;;;3.37;2.90;;;18.10;99.90;;;;;;4942409;28;20465;-83
2023/07/25 05:53:32;;;;;;;5.27;2.53;;;17.90;99.90;;;;;;4928306;28;20463;-85
2023/07/25 05:56:23;;;;;;;8.93;3.30;;;17.90;99.90;;;;;;4928045;29;20529;-81
2023/07/25 05:59:24;;;;;;;5.33;2.70;;;18.20;99.90;;;;;;4906115;28;20505;-82
2023/07/25 06:02:16;;;;;;;5.20;2.80;;;18.20;99.90;;;;;;4933859;28;20515;-82
2023/07/25 06:05:24;;;;;;;4.10;2.73;;;18.20;99.90;;;;;;4927834;28;20468;-83
2023/07/25 06:08:34;;;;;;;6.60;3.43;;;18.50;99.40;;;;;;4949223;28;20440;-85
2023/07/25 06:11:44;;;;;;;4.90;3.67;;;18.30;99.30;;;;;;4992197;28;20596;-83
2023/07/25 06:14:22;;;;;;;7.73;3.00;;;18.40;99.10;;;;;;4978811;28;20493;-84
2023/07/25 06:17:07;;;;;;;3.57;2.50;;;18.30;98.90;;;;;;4995074;28;20650;-83
2023/07/25 06:19:50;;;;;;;3.40;3.00;;;18.40;98.90;;;;;;5002849;28;20459;-82
2023/07/25 06:22:31;;;;;;;4.37;2.63;;;18.40;98.70;;;;;;5455843;22;20763;-81
2023/07/25 06:25:24;;;;;;;4.37;3.30;;;18.60;98.10;;;;;;5019562;28;20445;-82
2023/07/25 06:28:17;;;;;;;6.57;3.27;;;18.70;97.80;;;;;;5021759;28;20509;-83
2023/07/25 06:31:51;;;;;;;5.23;2.73;;;18.70;97.80;;;;;;5092300;23;20512;-84
2023/07/25 06:34:31;;;;;;;2.07;1.90;;;18.80;97.20;;;;;;4942938;28;20469;-84
2023/07/25 06:37:42;;;;;;;4.93;2.60;;;18.50;97.40;;;;;;5009284;28;20533;-80
2023/07/25 06:40:42;;;;;;;3.70;2.57;;;18.80;97.10;;;;;;4989383;28;20485;-83
2023/07/25 06:43:57;;;;;;;3.83;2.30;;;18.70;96.70;;;;;;4992421;28;20569;-83
2023/07/25 06:47:03;;;;;;;;;;;;;;;;;;;;;
2023/07/25 06:50:21;;;;;;;3.13;1.80;;;18.50;96.60;;;;;;4928924;29;20444;-82
2023/07/25 06:53:21;;;;;;;2.83;2.20;;;18.30;96.70;;;;;;4926308;29;20465;-81
2023/07/25 06:57:04;;;;;;;4.43;2.03;;;18.40;96.50;;;;;;4923423;29;20992;-83
2023/07/25 07:00:07;;;;;;;3.70;1.80;;;18.50;96.00;;;;;;4923147;28;20429;-82
2023/07/25 07:02:56;;;;;;;2.13;1.63;;;18.40;96.10;;;;;;4925187;28;20440;-83
2023/07/25 07:09:05;;;;;;;2.77;2.10;;;18.50;95.30;;;;;;4907190;28;20518;-83
2023/07/25 07:12:16;;;;;;;4.60;2.00;;;18.50;95.30;;;;;;5008442;22;20488;-84
2023/07/25 07:18:20;;;;;;;3.20;1.57;;;18.70;94.50;;;;;;5018967;28;20518;-82
2023/07/25 07:21:38;;;;;;;;;;;;;;;;;;;;;
2023/07/25 07:24:44;;;;;;;2.13;1.93;;;18.90;93.40;;;;;;4997111;28;20435;-82
2023/07/25 07:27:20;;;;;;;2.27;1.70;;;18.70;93.40;;;;;;4985986;28;20450;-82
2023/07/25 07:30:04;;;;;;;1.83;1.60;;;18.90;93.40;;;;;;4986157;28;20470;-84
2023/07/25 07:33:01;;;;;;;2.83;2.00;;;19.20;92.90;;;;;;4982933;28;20561;-83
2023/07/25 07:35:34;;;;;;;2.53;1.90;;;19.20;92.40;;;;;;4988642;28;20486;-83
2023/07/25 07:38:17;;;;;;;6.57;2.10;;;19.20;92.60;;;;;;4980345;28;20565;-83
2023/07/25 07:41:02;;;;;;;2.67;1.50;;;19.10;92.90;;;;;;4970796;28;20477;-82
2023/07/25 07:43:35;;;;;;;2.53;1.70;;;19.50;92.40;;;;;;5003089;28;20457;-82
2023/07/25 07:46:13;;;;;;;3.43;1.63;;;19.80;91.80;;;;;;4989887;28;20442;-82
2023/07/25 07:49:02;;;;;;;2.97;2.13;;;19.80;91.10;;;;;;4998658;28;20469;-81
2023/07/25 07:52:14;;;;;;;2.17;1.97;;;19.50;91.50;;;;;;4984704;28;20536;-82
2023/07/25 07:55:12;;;;;;;2.33;1.50;;;19.40;91.80;;;;;;4984001;28;20576;-83
2023/07/25 08:01:52;;;;;;;3.70;2.30;;;19.40;92.10;;;;;;4997216;28;20493;-80
2023/07/25 08:04:35;;;;;;;2.00;1.53;;;19.30;92.20;;;;;;4981455;28;20466;-82
2023/07/25 08:07:10;;;;;;;4.87;2.30;;;19.20;92.70;;;;;;4995985;28;20470;-82
2023/07/25 08:10:31;;;;;;;;;;;;;;;;;;;;;
2023/07/25 08:13:33;;;;;;;5.30;1.73;;;19.50;92.90;;;;;;4994143;28;20536;-81
2023/07/25 08:20:24;;;;;;;3.17;1.77;;;19.70;92.30;;;;;;4907720;28;20548;-83
2023/07/25 08:23:23;;;;;;;3.23;2.03;;;20.10;91.20;;;;;;4977933;28;20462;-82
2023/07/25 08:26:40;;;;;;;;;;;;;;;;;;;;;
2023/07/25 08:29:51;;;;;;;3.57;1.90;;;19.50;91.50;;;;;;4985260;28;20517;-82
2023/07/25 08:32:49;;;;;;;2.73;1.90;;;19.60;90.90;;;;;;4981166;28;21042;-82
2023/07/25 08:35:27;;;;;;;1.83;1.60;;;19.90;90.70;;;;;;4982121;28;20647;-83
2023/07/25 08:38:14;;;;;;;2.83;1.83;;;20.10;90.10;;;;;;4982118;28;21398;-84
2023/07/25 08:41:24;;;;;;;3.40;2.00;;;20.20;89.30;;;;;;4996189;28;20466;-84
2023/07/25 08:44:26;;;;;;;2.73;1.70;;;19.90;89.10;;;;;;4935466;28;20437;-81
2023/07/25 08:48:23;;;;;;;2.63;1.60;;;19.50;90.40;;;;;;4949933;28;20439;-84
2023/07/25 08:51:19;;;;;;;2.47;1.87;;;19.40;91.30;;;;;;4981136;28;20764;-83
2023/07/25 08:54:26;;;;;;;2.50;2.10;;;19.40;91.20;;;;;;4999212;28;20552;-85
2023/07/25 08:57:12;;;;;;;4.37;2.10;;;19.60;90.40;;;;;;4997205;28;20538;-83
2023/07/25 08:59:53;;;;;;;4.33;2.10;;;19.90;89.70;;;;;;4997565;28;20450;-85
2023/07/25 09:02:40;;;;;;;2.50;2.20;;;19.90;88.60;;;;;;4995956;28;20450;-82
2023/07/25 09:05:38;;;;;;;2.53;2.20;;;19.60;90.10;;;;;;4997483;28;20485;-86
2023/07/25 09:08:11;;;;;;;2.60;1.97;;;19.80;90.30;;;;;;4982713;28;20482;-82
2023/07/25 09:10:43;;;;;;;4.83;2.90;;;19.60;90.60;;;;;;4984477;28;20525;-83
2023/07/25 09:13:20;;;;;;;2.53;2.30;;;20.20;88.10;;;;;;4999927;28;20442;-82
2023/07/25 09:16:01;;;;;;;4.57;2.13;;;20.60;87.20;;;;;;4996505;28;20469;-84
2023/07/25 09:18:44;;;;;;;3.30;2.30;;;21.40;83.30;;;;;;4981752;28;20493;-83
2023/07/25 09:21:36;;;;;;;2.93;2.23;;;21.50;81.20;;;;;;4981470;28;20467;-82
2023/07/25 09:24:28;;;;;;;3.93;1.90;;;21.60;78.80;;;;;;4989030;28;21029;-81
2023/07/25 09:27:06;;;;;;;2.30;2.10;;;21.30;79.80;;;;;;5002662;28;20453;-85
2023/07/25 09:29:50;;;;;;;2.03;1.63;;;21.00;79.50;;;;;;5003838;28;21326;-84
2023/07/25 09:32:49;;;;;;;4.03;2.07;;;21.00;80.10;;;;;;4983786;28;20553;-84
2023/07/25 09:35:49;;;;;;;2.67;1.83;;;20.60;81.60;;;;;;5002321;28;22117;-83
2023/07/25 09:38:27;;;;;;;5.30;2.00;;;20.60;82.30;;;;;;5000039;28;21591;-82
2023/07/25 09:44:18;;;;;;;4.33;2.20;;;20.40;83.00;;;;;;5011248;28;20526;-83
2023/07/25 09:47:23;;;;;;;5.50;2.00;;;20.30;83.00;;;;;;4999640;28;20505;-84
2023/07/25 09:50:14;;;;;;;1.90;1.77;;;19.90;84.10;;;;;;4999297;28;20477;-84
2023/07/25 09:53:29;;;;;;;1.70;1.60;;;20.10;85.50;;;;;;5003404;28;20466;-83
2023/07/25 09:56:31;;;;;;;;;;;;;;;;;;;;;
2023/07/25 09:59:37;;;;;;;3.23;1.70;;;20.10;85.40;;;;;;4924500;29;20647;-83
2023/07/25 10:02:52;;;;;;;2.00;1.70;;;19.90;84.80;;;;;;4927634;29;21013;-84
2023/07/25 10:05:45;;;;;;;3.13;2.63;;;19.70;86.20;;;;;;4922852;29;20554;-84
2023/07/25 10:11:31;;;;;;;4.43;2.50;;;19.60;87.70;;;;;;4928199;28;20474;-84
2023/07/25 10:14:42;;;;;;;2.53;2.23;;;19.60;88.10;;;;;;4940939;28;20555;-83
2023/07/25 10:17:52;;;;;;;5.73;2.30;;;19.70;87.70;;;;;;4980073;28;20451;-82
2023/07/25 10:20:59;;;;;;;2.50;1.93;;;19.70;88.00;;;;;;5009742;28;21929;-81
2023/07/25 10:27:41;;;;;;;4.03;1.90;;;19.50;88.20;;;;;;4996514;28;20450;-83
2023/07/25 10:30:33;;;;;;;2.00;1.67;;;19.80;87.80;;;;;;5001485;28;20485;-83
2023/07/25 10:34:02;;;;;;;4.47;2.20;;;19.90;86.80;;;;;;4991777;28;20517;-82
2023/07/25 10:37:38;;;;;;;2.63;1.90;;;19.80;87.00;;;;;;4968321;28;20462;-84
2023/07/25 10:40:46;;;;;;;2.63;1.80;;;19.70;86.40;;;;;;4992333;28;20508;-84
2023/07/25 10:43:57;;;;;;;2.10;1.80;;;20.20;86.40;;;;;;4989544;28;20570;-84
2023/07/25 10:46:50;;;;;;;3.23;1.63;;;20.30;84.90;;;;;;4962008;28;20461;-84
2023/07/25 10:49:59;;;;;;;2.77;1.47;;;20.00;85.60;;;;;;4989945;28;20541;-82
2023/07/25 10:52:52;;;;;;;4.13;2.30;;;19.80;87.00;;;;;;4994959;28;20466;-83
2023/07/25 10:55:34;;;;;;;2.17;1.70;;;19.70;86.70;;;;;;5006439;28;20557;-86
2023/07/25 10:59:12;;;;;;;1.87;1.60;;;19.70;87.30;;;;;;5008801;28;20529;-85
2023/07/25 11:02:25;;;;;;;3.50;1.90;;;20.00;86.60;;;;;;4973597;28;20526;-82
2023/07/25 11:05:25;;;;;;;3.47;1.60;;;19.80;85.40;;;;;;4970540;28;20486;-84
2023/07/25 11:08:09;;;;;;;2.57;1.90;;;20.00;84.90;;;;;;4990333;28;20453;-83
2023/07/25 11:11:20;;;;;;;2.10;1.90;;;20.40;84.10;;;;;;4985626;28;20497;-83
2023/07/25 11:14:01;;;;;;;5.10;2.13;;;21.80;80.90;;;;;;4988059;28;20484;-81
2023/07/25 11:16:54;;;;;;;5.87;1.90;;;22.90;75.90;;;;;;4978814;28;20481;-85
2023/07/25 11:19:29;;;;;;;2.20;1.83;;;23.90;70.00;;;;;;5000386;28;20485;-83
2023/07/25 11:21:58;;;;;;;3.20;1.80;;;23.60;68.10;;;;;;4983565;28;20496;-83
2023/07/25 11:25:14;;;;;;;3.83;1.87;;;23.40;68.50;;;;;;4989533;28;20560;-82
2023/07/25 11:28:01;;;;;;;2.60;1.80;;;23.60;67.70;;;;;;4988636;28;20469;-84
2023/07/25 11:30:48;;;;;;;2.67;2.30;;;23.90;64.30;;;;;;4971794;28;20557;-83
2023/07/25 11:34:10;;;;;;;3.03;2.10;;;24.00;63.10;;;;;;4983156;28;20473;-83
2023/07/25 11:36:46;;;;;;;4.20;1.90;;;24.30;62.10;;;;;;4995056;28;20500;-81
2023/07/25 11:39:44;;;;;;;2.20;1.63;;;25.10;60.00;;;;;;4981866;28;20478;-81
2023/07/25 11:42:15;;;;;;;3.43;2.37;;;26.20;56.40;;;;;;4984159;28;20458;-84
2023/07/25 11:44:52;;;;;;;4.27;2.30;;;26.20;55.00;;;;;;4997005;28;20604;-82
2023/07/25 11:47:45;;;;;;;3.10;2.30;;;25.60;55.50;;;;;;5007378;28;20473;-82
2023/07/25 11:50:33;;;;;;;3.10;2.40;;;24.80;56.10;;;;;;5022346;28;20476;-82
2023/07/25 11:53:13;;;;;;;2.60;1.90;;;24.50;57.00;;;;;;5018989;28;20484;-84
2023/07/25 11:56:11;;;;;;;2.10;1.60;;;24.80;57.40;;;;;;5002695;28;20458;-80
2023/07/25 11:58:50;;;;;;;3.63;2.00;;;25.20;56.30;;;;;;5023764;28;20534;-85
2023/07/25 12:01:30;;;;;;;3.30;2.50;;;26.90;53.90;;;;;;5024554;28;20466;-83
2023/07/25 12:04:46;;;;;;;1.80;1.50;;;27.30;51.70;;;;;;5010885;28;21355;-85
2023/07/25 12:08:09;;;;;;;2.53;2.33;;;27.10;49.40;;;;;;4981634;28;20434;-85
2023/07/25 12:10:42;;;;;;;2.23;1.70;;;26.10;49.90;;;;;;5005181;28;20481;-83
2023/07/25 12:13:19;;;;;;;2.20;2.00;;;25.30;50.70;;;;;;5015373;28;20497;-84
2023/07/25 12:16:01;;;;;;;3.10;1.90;;;24.60;51.90;;;;;;4996691;28;20458;-85
2023/07/25 12:19:22;;;;;;;4.03;2.53;;;24.10;53.20;;;;;;4993251;28;20493;-85
2023/07/25 12:22:08;;;;;;;3.03;1.80;;;23.60;55.90;;;;;;4989367;28;20482;-84
2023/07/25 12:25:06;;;;;;;2.40;2.20;;;23.20;58.00;;;;;;4989108;28;21817;-83
2023/07/25 12:28:10;;;;;;;2.60;2.40;;;23.10;58.40;;;;;;4997765;28;20468;-85
2023/07/25 12:30:53;;;;;;;2.50;2.00;;;22.80;59.10;;;;;;4996961;28;20534;-82
2023/07/25 12:33:49;;;;;;;2.90;2.17;;;22.40;61.20;;;;;;4987769;28;21772;-82
2023/07/25 12:36:30;;;;;;;5.97;2.10;;;22.30;64.80;;;;;;4992281;28;20457;-85
2023/07/25 12:39:29;;;;;;;4.77;1.80;;;22.10;66.80;;;;;;5002830;28;20521;-82
2023/07/25 12:42:21;;;;;;;2.23;2.00;;;21.70;69.10;;;;;;4983365;28;20450;-83
2023/07/25 12:45:21;;;;;;;1.90;1.70;;;21.50;70.70;;;;;;4989833;28;20500;-83
2023/07/25 12:48:03;;;;;;;3.70;2.10;;;21.30;71.70;;;;;;5000925;28;20780;-82
2023/07/25 12:50:55;;;;;;;4.00;1.90;;;21.20;73.20;;;;;;4989736;28;20471;-84
2023/07/25 12:53:28;;;;;;;2.80;2.23;;;21.40;72.50;;;;;;5005345;28;20454;-82
2023/07/25 12:56:15;;;;;;;2.73;1.70;;;21.30;72.80;;;;;;5018556;28;20442;-84
2023/07/25 12:59:01;;;;;;;2.90;2.30;;;21.30;73.20;;;;;;5006826;28;20478;-84
2023/07/25 13:01:36;;;;;;;3.70;2.00;;;21.50;73.10;;;;;;4990884;28;20510;-83
2023/07/25 13:04:26;;;;;;;4.97;1.90;;;21.60;72.50;;;;;;4983221;28;20501;-82
2023/07/25 13:07:22;;;;;;;3.80;2.17;;;21.60;71.80;;;;;;4990858;28;20474;-83
2023/07/25 13:10:10;;;;;;;3.00;2.63;;;21.30;71.80;;;;;;4986392;28;20961;-82
2023/07/25 13:13:07;;;;;;;3.07;1.63;;;21.30;70.50;;;;;;4988690;28;21036;-84
2023/07/25 13:15:45;;;;;;;1.50;1.40;;;21.40;67.90;;;;;;4988903;28;20442;-84
2023/07/25 13:18:48;;;;;;;3.23;1.50;;;21.20;65.70;;;;;;4994798;28;20482;-84
2023/07/25 13:21:43;;;;;;;3.27;2.30;;;20.90;66.70;;;;;;4980260;28;20545;-82
2023/07/25 13:24:18;;;;;;;4.10;2.57;;;20.80;68.50;;;;;;5005455;28;20458;-84
2023/07/25 13:26:54;;;;;;;3.80;2.33;;;20.90;70.10;;;;;;4987631;28;20463;-83
2023/07/25 13:29:36;;;;;;;4.83;2.10;;;20.90;71.30;;;;;;4977317;28;20458;-85
2023/07/25 13:32:22;;;;;;;5.30;2.20;;;20.80;72.40;;;;;;4987095;28;20498;-82
2023/07/25 13:35:00;;;;;;;1.93;1.40;;;20.80;73.10;;;;;;4993955;28;20494;-83
2023/07/25 13:37:44;;;;;;;7.33;1.93;;;20.80;73.10;;;;;;4987220;28;20478;-84
2023/07/25 13:40:17;;;;;;;8.00;2.30;;;20.70;75.00;;;;;;4998870;28;20482;-81
2023/07/25 13:42:56;;;;;;;3.20;2.50;;;21.20;74.80;;;;;;5019489;28;20438;-83
2023/07/25 13:45:50;;;;;;;4.73;2.10;;;21.30;74.50;;;;;;5004597;28;20454;-82
2023/07/25 13:48:29;;;;;;;4.27;1.80;;;21.10;75.60;;;;;;5012377;28;20465;-83
2023/07/25 13:51:22;;;;;;;2.50;2.07;;;20.90;75.80;;;;;;5013410;28;20504;-84
2023/07/25 13:54:23;;;;;;;5.40;1.40;;;20.80;74.50;;;;;;4999749;28;20476;-83
2023/07/25 13:56:59;;;;;;;2.40;1.73;;;20.70;72.50;;;;;;4996196;28;20462;-82
2023/07/25 13:59:43;;;;;;;3.20;2.13;;;20.60;71.90;;;;;;5008538;28;20906;-82
2023/07/25 14:02:37;;;;;;;2.00;1.33;;;20.60;71.60;;;;;;4984309;28;20505;-84
2023/07/25 14:06:04;;;;;;;4.63;3.50;;;20.70;71.90;;;;;;4996712;28;20477;-81
2023/07/25 14:08:42;;;;;;;3.17;1.97;;;20.80;71.00;;;;;;4986652;28;20462;-84
2023/07/25 14:11:27;;;;;;;1.97;1.77;;;21.30;69.90;;;;;;4982055;28;20474;-83
2023/07/25 14:14:04;;;;;;;4.30;1.73;;;21.30;69.60;;;;;;4997905;28;20959;-83
2023/07/25 14:17:40;;;;;;;3.17;1.97;;;21.40;69.10;;;;;;4980921;28;21100;-83
2023/07/25 14:21:14;;;;;;;;;;;;;;;;;;;;;
2023/07/25 14:24:07;;;;;;;4.40;2.00;;;22.40;66.10;;;;;;4985597;28;20504;-81
2023/07/25 14:27:03;;;;;;;2.60;1.43;;;22.20;65.90;;;;;;4987539;28;21697;-84
2023/07/25 14:29:52;;;;;;;2.07;1.40;;;22.20;64.70;;;;;;4985220;28;20465;-83
2023/07/25 14:32:44;;;;;;;2.70;1.53;;;22.20;64.90;;;;;;4977957;28;20500;-82
2023/07/25 14:35:55;;;;;;;6.30;1.53;;;22.50;64.10;;;;;;4980213;28;20584;-81
2023/07/25 14:39:18;;;;;;;3.30;1.80;;;22.60;63.10;;;;;;4877337;29;20530;-83
2023/07/25 14:42:26;;;;;;;3.37;1.37;;;22.20;65.10;;;;;;4910189;28;20498;-82
2023/07/25 14:45:17;;;;;;;1.83;1.73;;;22.30;67.30;;;;;;5004360;28;20512;-84
2023/07/25 14:48:37;;;;;;;;;;;;;;;;;;;;;
2023/07/25 14:51:27;;;;;;;4.30;1.50;;;22.00;70.60;;;;;;4990074;28;20561;-84
2023/07/25 14:54:12;;;;;;;8.50;1.50;;;22.00;70.20;;;;;;4985174;28;20465;-84
2023/07/25 14:57:03;;;;;;;2.30;2.07;;;22.60;68.40;;;;;;4999491;28;20521;-84
2023/07/25 15:00:33;;;;;;;1.80;1.20;;;22.60;65.10;;;;;;4989057;28;20555;-85
2023/07/25 15:03:10;;;;;;;2.40;1.20;;;22.70;64.10;;;;;;5001752;28;20446;-85
2023/07/25 15:06:15;;;;;;;1.47;1.10;;;22.40;62.90;;;;;;5020023;28;20455;-85
2023/07/25 15:09:10;;;;;;;1.30;1.20;;;22.20;63.70;;;;;;5018150;28;20442;-83
2023/07/25 15:12:16;;;;;;;1.20;1.00;;;22.40;62.10;;;;;;5015401;28;20469;-83
2023/07/25 15:15:08;;;;;;;2.87;1.20;;;22.80;59.40;;;;;;5089028;22;20493;-84
2023/07/25 15:17:56;;;;;;;3.50;1.10;;;22.70;58.80;;;;;;5010048;28;20460;-83
2023/07/25 15:20:43;;;;;;;1.43;1.10;;;22.40;59.40;;;;;;5010003;28;20584;-82
2023/07/25 15:23:26;;;;;;;1.93;1.20;;;22.10;59.10;;;;;;5014885;28;20507;-84
2023/07/25 15:30:01;;;;;;;2.03;0.93;;;22.20;59.80;;;;;;5026978;28;20450;-81
2023/07/25 15:33:10;;;;;;;1.70;1.30;;;22.30;60.00;;;;;;5003178;28;20446;-84
2023/07/25 15:36:26;;;;;;;3.80;1.20;;;22.20;60.30;;;;;;5010553;28;20445;-86
2023/07/25 15:42:49;;;;;;;0.90;0.90;;;22.00;61.40;;;;;;5011129;28;20552;-84
2023/07/25 15:45:53;;;;;;;1.30;1.20;;;22.00;61.60;;;;;;5005214;28;20453;-83
2023/07/25 15:48:50;;;;;;;1.63;1.50;;;21.90;62.50;;;;;;4999306;28;20433;-85
2023/07/25 15:52:04;;;;;;;2.93;1.20;;;21.70;63.40;;;;;;5029876;28;20525;-81
2023/07/25 15:54:52;;;;;;;1.57;1.30;;;21.50;63.80;;;;;;5010054;28;20461;-84
2023/07/25 15:57:59;;;;;;;1.60;1.30;;;21.50;64.20;;;;;;4990402;28;20822;-84
2023/07/25 16:01:13;;;;;;;3.17;1.70;;;21.50;64.60;;;;;;5010179;28;20512;-84
2023/07/25 16:07:17;;;;;;;1.67;1.00;;;21.40;64.60;;;;;;5014303;28;20429;-81
2023/07/25 16:10:09;;;;;;;1.23;1.13;;;21.40;64.20;;;;;;5014096;28;20497;-84
2023/07/25 16:13:01;;;;;;;1.63;1.10;;;21.40;65.00;;;;;;5027616;28;20449;-83
2023/07/25 16:16:02;;;;;;;1.60;1.50;;;21.60;65.70;;;;;;4987077;28;20550;-83
2023/07/25 16:18:35;;;;;;;2.50;1.40;;;21.30;66.00;;;;;;5014134;28;20610;-85
2023/07/25 16:21:56;;;;;;;2.83;1.40;;;21.20;66.70;;;;;;5012224;28;20471;-83
2023/07/25 16:28:06;;;;;;;2.20;1.60;;;21.10;68.00;;;;;;5012330;28;20450;-85
2023/07/25 16:31:07;;;;;;;2.60;1.77;;;21.00;68.20;;;;;;5026071;28;20522;-84
2023/07/25 16:34:30;;;;;;;;;;;;;;;;;;;;;
2023/07/25 16:37:38;;;;;;;2.10;1.27;;;21.10;68.50;;;;;;5026204;28;20460;-82
2023/07/25 16:40:33;;;;;;;2.13;1.17;;;21.20;68.30;;;;;;5003621;28;20575;-84
2023/07/25 16:43:28;;;;;;;3.03;1.17;;;21.20;68.20;;;;;;5023348;28;20457;-84